sensor_id;sensor_type;location;lat;lon;timestamp;P1;durP1;ratioP1;P2;durP2;ratioP2
46925;SDS011;32667;48.248;-1.700;2023-02-14T07:04:13;0.40;;;0.30;;
46925;SDS011;32667;48.248;-1.700;2023-02-14T07:06:42;0.43;;;0.30;;
46925;SDS011;32667;48.248;-1.700;2023-02-14T07:09:09;0.60;;;0.40;;
46925;SDS011;32667;48.248;-1.700;2023-02-14T07:11:40;0.32;;;0.30;;
46925;SDS011;32667;48.248;-1.700;2023-02-14T07:14:06;0.45;;;0.35;;
46925;SDS011;32667;48.248;-1.700;2023-02-14T07:16:32;0.30;;;0.30;;
46925;SDS011;32667;48.248;-1.700;2023-02-14T07:19:00;0.45;;;0.30;;
46925;SDS011;32667;48.248;-1.700;2023-02-14T07:21:26;0.40;;;0.30;;
46925;SDS011;32667;48.248;-1.700;2023-02-14T07:23:52;0.30;;;0.30;;
46925;SDS011;32667;48.248;-1.700;2023-02-14T07:26:17;0.45;;;0.30;;
46925;SDS011;32667;48.248;-1.700;2023-02-14T07:28:48;0.30;;;0.28;;
46925;SDS011;32667;48.248;-1.700;2023-02-14T07:31:16;0.30;;;0.30;;
46925;SDS011;32667;48.248;-1.700;2023-02-14T07:33:47;0.30;;;0.30;;
46925;SDS011;32667;48.248;-1.700;2023-02-14T07:36:14;0.30;;;0.30;;
46925;SDS011;32667;48.248;-1.700;2023-02-14T07:38:42;0.30;;;0.30;;
46925;SDS011;32667;48.248;-1.700;2023-02-14T07:41:07;0.30;;;0.30;;
46925;SDS011;32667;48.248;-1.700;2023-02-14T07:43:35;0.30;;;0.30;;
46925;SDS011;32667;48.248;-1.700;2023-02-14T07:46:02;0.30;;;0.30;;
46925;SDS011;32667;48.248;-1.700;2023-02-14T07:48:32;0.38;;;0.30;;
46925;SDS011;32667;48.248;-1.700;2023-02-14T07:50:58;0.30;;;0.30;;
46925;SDS011;32667;48.248;-1.700;2023-02-14T07:53:27;0.32;;;0.30;;
46925;SDS011;32667;48.248;-1.700;2023-02-14T07:55:52;0.30;;;0.30;;
46925;SDS011;32667;48.248;-1.700;2023-02-14T07:58:18;0.45;;;0.35;;
46925;SDS011;32667;48.248;-1.700;2023-02-14T08:00:47;0.30;;;0.30;;
46925;SDS011;32667;48.248;-1.700;2023-02-14T08:03:15;0.30;;;0.30;;
46925;SDS011;32667;48.248;-1.700;2023-02-14T08:05:41;0.30;;;0.30;;
46925;SDS011;32667;48.248;-1.700;2023-02-14T08:08:21;0.47;;;0.30;;
46925;SDS011;32667;48.248;-1.700;2023-02-14T08:10:53;0.30;;;0.30;;
46925;SDS011;32667;48.248;-1.700;2023-02-14T08:13:19;0.25;;;0.25;;
46925;SDS011;32667;48.248;-1.700;2023-02-14T08:15:45;0.30;;;0.30;;
46925;SDS011;32667;48.248;-1.700;2023-02-14T08:18:29;0.50;;;0.40;;
46925;SDS011;32667;48.248;-1.700;2023-02-14T08:20:56;0.40;;;0.30;;
46925;SDS011;32667;48.248;-1.700;2023-02-14T08:23:22;0.40;;;0.30;;
46925;SDS011;32667;48.248;-1.700;2023-02-14T08:25:49;0.40;;;0.30;;
46925;SDS011;32667;48.248;-1.700;2023-02-14T08:28:15;0.47;;;0.40;;
46925;SDS011;32667;48.248;-1.700;2023-02-14T08:30:43;0.30;;;0.30;;
46925;SDS011;32667;48.248;-1.700;2023-02-14T08:33:09;0.30;;;0.30;;
46925;SDS011;32667;48.248;-1.700;2023-02-14T08:35:35;0.40;;;0.30;;
46925;SDS011;32667;48.248;-1.700;2023-02-14T08:38:01;0.45;;;0.30;;
46925;SDS011;32667;48.248;-1.700;2023-02-14T08:40:27;0.60;;;0.40;;
46925;SDS011;32667;48.248;-1.700;2023-02-14T08:43:03;0.40;;;0.30;;
46925;SDS011;32667;48.248;-1.700;2023-02-14T08:45:32;0.30;;;0.30;;
46925;SDS011;32667;48.248;-1.700;2023-02-14T08:48:05;0.30;;;0.30;;
46925;SDS011;32667;48.248;-1.700;2023-02-14T08:50:36;0.30;;;0.30;;
46925;SDS011;32667;48.248;-1.700;2023-02-14T08:53:11;0.35;;;0.30;;
46925;SDS011;32667;48.248;-1.700;2023-02-14T08:55:40;0.22;;;0.22;;
46925;SDS011;32667;48.248;-1.700;2023-02-14T08:58:06;0.22;;;0.22;;
46925;SDS011;32667;48.248;-1.700;2023-02-14T09:00:34;0.30;;;0.30;;
46925;SDS011;32667;48.248;-1.700;2023-02-14T09:03:00;0.32;;;0.30;;
46925;SDS011;32667;48.248;-1.700;2023-02-14T09:05:26;0.30;;;0.30;;
46925;SDS011;32667;48.248;-1.700;2023-02-14T09:07:54;0.40;;;0.35;;
46925;SDS011;32667;48.248;-1.700;2023-02-14T09:10:25;0.20;;;0.20;;
46925;SDS011;32667;48.248;-1.700;2023-02-14T09:12:53;0.30;;;0.30;;
46925;SDS011;32667;48.248;-1.700;2023-02-14T09:15:18;0.22;;;0.22;;
46925;SDS011;32667;48.248;-1.700;2023-02-14T09:17:47;0.20;;;0.20;;
46925;SDS011;32667;48.248;-1.700;2023-02-14T09:20:13;0.30;;;0.30;;
46925;SDS011;32667;48.248;-1.700;2023-02-14T09:22:40;0.30;;;0.30;;
46925;SDS011;32667;48.248;-1.700;2023-02-14T09:25:08;0.28;;;0.25;;
46925;SDS011;32667;48.248;-1.700;2023-02-14T09:27:38;0.30;;;0.30;;
46925;SDS011;32667;48.248;-1.700;2023-02-14T09:30:05;0.30;;;0.30;;
46925;SDS011;32667;48.248;-1.700;2023-02-14T09:32:34;0.30;;;0.30;;
46925;SDS011;32667;48.248;-1.700;2023-02-14T09:35:00;0.30;;;0.30;;
46925;SDS011;32667;48.248;-1.700;2023-02-14T09:40:49;0.20;;;0.20;;
46925;SDS011;32667;48.248;-1.700;2023-02-14T09:43:22;0.38;;;0.30;;
46925;SDS011;32667;48.248;-1.700;2023-02-14T09:46:09;0.30;;;0.28;;
46925;SDS011;32667;48.248;-1.700;2023-02-14T09:48:40;0.30;;;0.30;;
46925;SDS011;32667;48.248;-1.700;2023-02-14T09:51:13;0.30;;;0.30;;
46925;SDS011;32667;48.248;-1.700;2023-02-14T09:53:45;0.25;;;0.25;;
46925;SDS011;32667;48.248;-1.700;2023-02-14T09:59:11;0.30;;;0.30;;
46925;SDS011;32667;48.248;-1.700;2023-02-14T10:01:39;0.28;;;0.28;;
46925;SDS011;32667;48.248;-1.700;2023-02-14T10:06:57;0.20;;;0.20;;
46925;SDS011;32667;48.248;-1.700;2023-02-14T10:15:19;0.30;;;0.30;;
46925;SDS011;32667;48.248;-1.700;2023-02-14T10:18:02;0.20;;;0.20;;
46925;SDS011;32667;48.248;-1.700;2023-02-14T10:20:38;0.30;;;0.30;;
46925;SDS011;32667;48.248;-1.700;2023-02-14T10:23:32;0.30;;;0.30;;
46925;SDS011;32667;48.248;-1.700;2023-02-14T10:26:04;0.30;;;0.30;;
46925;SDS011;32667;48.248;-1.700;2023-02-14T10:28:48;0.30;;;0.30;;
46925;SDS011;32667;48.248;-1.700;2023-02-14T10:34:05;0.28;;;0.28;;
46925;SDS011;32667;48.248;-1.700;2023-02-14T10:43:04;0.20;;;0.20;;
46925;SDS011;32667;48.248;-1.700;2023-02-14T10:46:02;0.30;;;0.30;;
46925;SDS011;32667;48.248;-1.700;2023-02-14T10:54:35;0.20;;;0.20;;
46925;SDS011;32667;48.248;-1.700;2023-02-14T10:57:12;0.30;;;0.30;;
46925;SDS011;32667;48.248;-1.700;2023-02-14T10:59:56;0.20;;;0.20;;
46925;SDS011;32667;48.248;-1.700;2023-02-14T11:02:26;0.20;;;0.20;;
46925;SDS011;32667;48.248;-1.700;2023-02-14T11:05:02;0.30;;;0.30;;
46925;SDS011;32667;48.248;-1.700;2023-02-14T11:07:31;0.20;;;0.20;;
46925;SDS011;32667;48.248;-1.700;2023-02-14T11:09:57;0.20;;;0.20;;
46925;SDS011;32667;48.248;-1.700;2023-02-14T11:12:32;0.20;;;0.20;;
46925;SDS011;32667;48.248;-1.700;2023-02-14T11:20:33;0.20;;;0.20;;
46925;SDS011;32667;48.248;-1.700;2023-02-14T11:22:59;0.30;;;0.30;;
46925;SDS011;32667;48.248;-1.700;2023-02-14T11:25:26;0.20;;;0.20;;
46925;SDS011;32667;48.248;-1.700;2023-02-14T11:28:01;0.20;;;0.20;;
46925;SDS011;32667;48.248;-1.700;2023-02-14T11:30:45;0.20;;;0.20;;
46925;SDS011;32667;48.248;-1.700;2023-02-14T11:36:15;0.20;;;0.20;;
46925;SDS011;32667;48.248;-1.700;2023-02-14T11:38:42;0.20;;;0.20;;
46925;SDS011;32667;48.248;-1.700;2023-02-14T11:41:13;0.20;;;0.20;;
46925;SDS011;32667;48.248;-1.700;2023-02-14T11:43:46;0.20;;;0.20;;
46925;SDS011;32667;48.248;-1.700;2023-02-14T11:51:30;0.20;;;0.20;;
46925;SDS011;32667;48.248;-1.700;2023-02-14T11:54:04;0.20;;;0.20;;
46925;SDS011;32667;48.248;-1.700;2023-02-14T12:01:52;0.20;;;0.20;;
46925;SDS011;32667;48.248;-1.700;2023-02-14T12:04:24;0.20;;;0.20;;
46925;SDS011;32667;48.248;-1.700;2023-02-14T12:07:09;0.20;;;0.20;;
46925;SDS011;32667;48.248;-1.700;2023-02-14T12:09:41;0.20;;;0.20;;
46925;SDS011;32667;48.248;-1.700;2023-02-14T12:12:37;0.25;;;0.25;;
46925;SDS011;32667;48.248;-1.700;2023-02-14T12:18:16;0.20;;;0.20;;
46925;SDS011;32667;48.248;-1.700;2023-02-14T12:26:42;0.20;;;0.20;;
46925;SDS011;32667;48.248;-1.700;2023-02-14T12:29:38;0.10;;;0.10;;
46925;SDS011;32667;48.248;-1.700;2023-02-14T12:32:28;0.20;;;0.20;;
46925;SDS011;32667;48.248;-1.700;2023-02-14T12:40:11;0.20;;;0.20;;
46925;SDS011;32667;48.248;-1.700;2023-02-14T12:45:51;0.20;;;0.20;;
46925;SDS011;32667;48.248;-1.700;2023-02-14T12:48:29;0.20;;;0.20;;
46925;SDS011;32667;48.248;-1.700;2023-02-14T12:59:32;0.20;;;0.20;;
46925;SDS011;32667;48.248;-1.700;2023-02-14T13:02:16;0.20;;;0.20;;
46925;SDS011;32667;48.248;-1.700;2023-02-14T13:05:00;0.20;;;0.20;;
46925;SDS011;32667;48.248;-1.700;2023-02-14T13:15:50;0.20;;;0.20;;
46925;SDS011;32667;48.248;-1.700;2023-02-14T13:21:10;0.20;;;0.20;;
46925;SDS011;32667;48.248;-1.700;2023-02-14T13:23:42;0.20;;;0.20;;
46925;SDS011;32667;48.248;-1.700;2023-02-14T13:28:51;0.20;;;0.20;;
46925;SDS011;32667;48.248;-1.700;2023-02-14T13:31:26;0.20;;;0.20;;
46925;SDS011;32667;48.248;-1.700;2023-02-14T13:33:56;0.20;;;0.20;;
46925;SDS011;32667;48.248;-1.700;2023-02-14T13:36:27;0.20;;;0.20;;
46925;SDS011;32667;48.248;-1.700;2023-02-14T13:47:14;0.20;;;0.20;;
46925;SDS011;32667;48.248;-1.700;2023-02-14T13:50:03;0.20;;;0.20;;
46925;SDS011;32667;48.248;-1.700;2023-02-14T13:53:02;0.17;;;0.17;;
46925;SDS011;32667;48.248;-1.700;2023-02-14T13:55:32;0.13;;;0.13;;
46925;SDS011;32667;48.248;-1.700;2023-02-14T13:58:04;0.13;;;0.13;;
46925;SDS011;32667;48.248;-1.700;2023-02-14T14:00:41;0.10;;;0.10;;
46925;SDS011;32667;48.248;-1.700;2023-02-14T14:03:12;0.20;;;0.20;;
46925;SDS011;32667;48.248;-1.700;2023-02-14T14:05:46;0.20;;;0.20;;
46925;SDS011;32667;48.248;-1.700;2023-02-14T14:10:55;0.10;;;0.10;;
46925;SDS011;32667;48.248;-1.700;2023-02-14T14:18:48;0.10;;;0.10;;
46925;SDS011;32667;48.248;-1.700;2023-02-14T14:21:23;0.20;;;0.20;;
46925;SDS011;32667;48.248;-1.700;2023-02-14T14:26:57;0.10;;;0.10;;
46925;SDS011;32667;48.248;-1.700;2023-02-14T14:32:34;0.10;;;0.10;;
46925;SDS011;32667;48.248;-1.700;2023-02-14T14:35:14;0.17;;;0.17;;
46925;SDS011;32667;48.248;-1.700;2023-02-14T14:37:49;0.10;;;0.10;;
46925;SDS011;32667;48.248;-1.700;2023-02-14T14:43:04;0.10;;;0.10;;
46925;SDS011;32667;48.248;-1.700;2023-02-14T14:45:38;0.10;;;0.10;;
46925;SDS011;32667;48.248;-1.700;2023-02-14T14:48:40;0.10;;;0.10;;
46925;SDS011;32667;48.248;-1.700;2023-02-14T14:51:46;0.10;;;0.10;;
46925;SDS011;32667;48.248;-1.700;2023-02-14T14:54:03;0.10;;;0.10;;
46925;SDS011;32667;48.248;-1.700;2023-02-14T14:56:32;0.20;;;0.20;;
46925;SDS011;32667;48.248;-1.700;2023-02-14T14:59:17;0.10;;;0.10;;
46925;SDS011;32667;48.248;-1.700;2023-02-14T15:01:51;0.10;;;0.10;;
46925;SDS011;32667;48.248;-1.700;2023-02-14T15:04:32;0.10;;;0.10;;
46925;SDS011;32667;48.248;-1.700;2023-02-14T15:07:16;0.10;;;0.10;;
46925;SDS011;32667;48.248;-1.700;2023-02-14T15:09:47;0.10;;;0.10;;
46925;SDS011;32667;48.248;-1.700;2023-02-14T15:12:17;0.10;;;0.10;;
46925;SDS011;32667;48.248;-1.700;2023-02-14T15:15:04;0.20;;;0.20;;
46925;SDS011;32667;48.248;-1.700;2023-02-14T15:17:37;0.10;;;0.10;;
46925;SDS011;32667;48.248;-1.700;2023-02-14T15:20:24;0.17;;;0.17;;
46925;SDS011;32667;48.248;-1.700;2023-02-14T15:22:51;0.20;;;0.20;;
46925;SDS011;32667;48.248;-1.700;2023-02-14T15:25:18;0.10;;;0.10;;
46925;SDS011;32667;48.248;-1.700;2023-02-14T15:27:44;0.20;;;0.20;;
46925;SDS011;32667;48.248;-1.700;2023-02-14T15:32:50;0.10;;;0.10;;
46925;SDS011;32667;48.248;-1.700;2023-02-14T15:35:20;0.10;;;0.10;;
46925;SDS011;32667;48.248;-1.700;2023-02-14T15:37:52;0.10;;;0.10;;
46925;SDS011;32667;48.248;-1.700;2023-02-14T15:40:23;0.10;;;0.10;;
46925;SDS011;32667;48.248;-1.700;2023-02-14T15:42:52;0.10;;;0.10;;
46925;SDS011;32667;48.248;-1.700;2023-02-14T15:45:28;0.15;;;0.15;;
46925;SDS011;32667;48.248;-1.700;2023-02-14T15:50:35;0.10;;;0.10;;
46925;SDS011;32667;48.248;-1.700;2023-02-14T15:56:00;0.20;;;0.20;;
46925;SDS011;32667;48.248;-1.700;2023-02-14T15:58:31;0.10;;;0.10;;
46925;SDS011;32667;48.248;-1.700;2023-02-14T16:01:02;0.13;;;0.13;;
46925;SDS011;32667;48.248;-1.700;2023-02-14T16:03:32;0.10;;;0.10;;
46925;SDS011;32667;48.248;-1.700;2023-02-14T16:06:03;0.10;;;0.10;;
46925;SDS011;32667;48.248;-1.700;2023-02-14T16:10:58;0.10;;;0.10;;
46925;SDS011;32667;48.248;-1.700;2023-02-14T16:13:29;0.10;;;0.10;;
46925;SDS011;32667;48.248;-1.700;2023-02-14T16:16:03;0.10;;;0.10;;
46925;SDS011;32667;48.248;-1.700;2023-02-14T16:18:34;0.17;;;0.17;;
46925;SDS011;32667;48.248;-1.700;2023-02-14T16:21:23;0.10;;;0.10;;
46925;SDS011;32667;48.248;-1.700;2023-02-14T16:26:37;0.20;;;0.20;;
46925;SDS011;32667;48.248;-1.700;2023-02-14T16:29:08;0.20;;;0.20;;
46925;SDS011;32667;48.248;-1.700;2023-02-14T16:31:37;0.20;;;0.20;;
46925;SDS011;32667;48.248;-1.700;2023-02-14T16:34:12;0.10;;;0.10;;
46925;SDS011;32667;48.248;-1.700;2023-02-14T16:36:39;0.10;;;0.10;;
46925;SDS011;32667;48.248;-1.700;2023-02-14T16:39:12;0.10;;;0.10;;
46925;SDS011;32667;48.248;-1.700;2023-02-14T16:41:43;0.20;;;0.20;;
46925;SDS011;32667;48.248;-1.700;2023-02-14T16:44:17;0.10;;;0.10;;
46925;SDS011;32667;48.248;-1.700;2023-02-14T16:46:44;0.20;;;0.20;;
46925;SDS011;32667;48.248;-1.700;2023-02-14T16:49:12;0.15;;;0.15;;
46925;SDS011;32667;48.248;-1.700;2023-02-14T16:51:41;0.13;;;0.13;;
46925;SDS011;32667;48.248;-1.700;2023-02-14T16:54:18;0.20;;;0.20;;
46925;SDS011;32667;48.248;-1.700;2023-02-14T16:56:53;0.10;;;0.10;;
46925;SDS011;32667;48.248;-1.700;2023-02-14T16:59:29;0.10;;;0.10;;
46925;SDS011;32667;48.248;-1.700;2023-02-14T17:01:56;0.20;;;0.20;;
46925;SDS011;32667;48.248;-1.700;2023-02-14T17:04:26;0.20;;;0.20;;
46925;SDS011;32667;48.248;-1.700;2023-02-14T17:07:01;0.20;;;0.20;;
46925;SDS011;32667;48.248;-1.700;2023-02-14T17:09:30;0.20;;;0.20;;
46925;SDS011;32667;48.248;-1.700;2023-02-14T17:12:04;0.10;;;0.10;;
46925;SDS011;32667;48.248;-1.700;2023-02-14T17:14:37;0.20;;;0.20;;
46925;SDS011;32667;48.248;-1.700;2023-02-14T17:17:06;0.20;;;0.20;;
46925;SDS011;32667;48.248;-1.700;2023-02-14T17:19:36;0.20;;;0.20;;
46925;SDS011;32667;48.248;-1.700;2023-02-14T17:22:02;0.10;;;0.10;;
46925;SDS011;32667;48.248;-1.700;2023-02-14T17:24:29;0.20;;;0.20;;
46925;SDS011;32667;48.248;-1.700;2023-02-14T17:26:57;0.20;;;0.20;;
46925;SDS011;32667;48.248;-1.700;2023-02-14T17:29:23;0.25;;;0.25;;
46925;SDS011;32667;48.248;-1.700;2023-02-14T17:31:54;0.20;;;0.20;;
46925;SDS011;32667;48.248;-1.700;2023-02-14T17:34:20;0.20;;;0.20;;
46925;SDS011;32667;48.248;-1.700;2023-02-14T17:36:45;0.20;;;0.20;;
46925;SDS011;32667;48.248;-1.700;2023-02-14T17:39:16;0.20;;;0.20;;
46925;SDS011;32667;48.248;-1.700;2023-02-14T17:41:44;0.20;;;0.20;;
46925;SDS011;32667;48.248;-1.700;2023-02-14T17:44:10;0.20;;;0.20;;
46925;SDS011;32667;48.248;-1.700;2023-02-14T17:46:39;0.20;;;0.20;;
46925;SDS011;32667;48.248;-1.700;2023-02-14T17:49:05;0.20;;;0.20;;
46925;SDS011;32667;48.248;-1.700;2023-02-14T17:51:32;0.20;;;0.20;;
46925;SDS011;32667;48.248;-1.700;2023-02-14T17:53:58;0.20;;;0.20;;
46925;SDS011;32667;48.248;-1.700;2023-02-14T17:56:27;0.17;;;0.17;;
46925;SDS011;32667;48.248;-1.700;2023-02-14T17:58:56;0.20;;;0.20;;
46925;SDS011;32667;48.248;-1.700;2023-02-14T18:01:25;0.20;;;0.20;;
46925;SDS011;32667;48.248;-1.700;2023-02-14T18:03:58;0.20;;;0.20;;
46925;SDS011;32667;48.248;-1.700;2023-02-14T18:06:26;0.20;;;0.20;;
46925;SDS011;32667;48.248;-1.700;2023-02-14T18:08:52;0.20;;;0.20;;
46925;SDS011;32667;48.248;-1.700;2023-02-14T18:11:21;0.20;;;0.20;;
46925;SDS011;32667;48.248;-1.700;2023-02-14T18:13:48;0.20;;;0.20;;
46925;SDS011;32667;48.248;-1.700;2023-02-14T18:16:15;0.20;;;0.20;;
46925;SDS011;32667;48.248;-1.700;2023-02-14T18:18:42;0.20;;;0.20;;
46925;SDS011;32667;48.248;-1.700;2023-02-14T18:21:09;0.20;;;0.20;;
46925;SDS011;32667;48.248;-1.700;2023-02-14T18:23:37;0.20;;;0.20;;
46925;SDS011;32667;48.248;-1.700;2023-02-14T18:26:07;0.20;;;0.20;;
46925;SDS011;32667;48.248;-1.700;2023-02-14T18:28:38;0.20;;;0.20;;
46925;SDS011;32667;48.248;-1.700;2023-02-14T18:31:05;0.20;;;0.20;;
46925;SDS011;32667;48.248;-1.700;2023-02-14T18:33:32;0.20;;;0.20;;
46925;SDS011;32667;48.248;-1.700;2023-02-14T18:36:06;0.20;;;0.20;;
46925;SDS011;32667;48.248;-1.700;2023-02-14T18:38:36;0.20;;;0.20;;
46925;SDS011;32667;48.248;-1.700;2023-02-14T18:41:05;0.20;;;0.20;;
46925;SDS011;32667;48.248;-1.700;2023-02-14T18:43:33;0.20;;;0.20;;
46925;SDS011;32667;48.248;-1.700;2023-02-14T18:46:03;0.20;;;0.20;;
46925;SDS011;32667;48.248;-1.700;2023-02-14T18:48:31;0.20;;;0.20;;
46925;SDS011;32667;48.248;-1.700;2023-02-14T18:51:05;0.30;;;0.30;;
46925;SDS011;32667;48.248;-1.700;2023-02-14T18:53:35;0.20;;;0.20;;
46925;SDS011;32667;48.248;-1.700;2023-02-14T18:56:02;0.20;;;0.20;;
46925;SDS011;32667;48.248;-1.700;2023-02-14T18:58:29;0.22;;;0.22;;
46925;SDS011;32667;48.248;-1.700;2023-02-14T19:00:57;0.20;;;0.20;;
46925;SDS011;32667;48.248;-1.700;2023-02-14T19:03:30;0.22;;;0.22;;
46925;SDS011;32667;48.248;-1.700;2023-02-14T19:05:58;0.20;;;0.20;;
46925;SDS011;32667;48.248;-1.700;2023-02-14T19:08:24;0.20;;;0.20;;
46925;SDS011;32667;48.248;-1.700;2023-02-14T19:10:50;0.20;;;0.20;;
46925;SDS011;32667;48.248;-1.700;2023-02-14T19:13:16;0.20;;;0.20;;
46925;SDS011;32667;48.248;-1.700;2023-02-14T19:15:41;0.20;;;0.20;;
46925;SDS011;32667;48.248;-1.700;2023-02-14T19:18:07;0.20;;;0.20;;
46925;SDS011;32667;48.248;-1.700;2023-02-14T19:20:33;0.20;;;0.20;;
46925;SDS011;32667;48.248;-1.700;2023-02-14T19:22:59;0.30;;;0.30;;
46925;SDS011;32667;48.248;-1.700;2023-02-14T19:25:25;0.30;;;0.30;;
46925;SDS011;32667;48.248;-1.700;2023-02-14T19:27:52;0.20;;;0.20;;
46925;SDS011;32667;48.248;-1.700;2023-02-14T19:30:18;0.20;;;0.20;;
46925;SDS011;32667;48.248;-1.700;2023-02-14T19:32:44;0.20;;;0.20;;
46925;SDS011;32667;48.248;-1.700;2023-02-14T19:35:09;0.20;;;0.20;;
46925;SDS011;32667;48.248;-1.700;2023-02-14T19:37:35;0.20;;;0.20;;
46925;SDS011;32667;48.248;-1.700;2023-02-14T19:40:01;0.30;;;0.28;;
46925;SDS011;32667;48.248;-1.700;2023-02-14T19:42:30;0.20;;;0.20;;
46925;SDS011;32667;48.248;-1.700;2023-02-14T19:44:56;0.20;;;0.20;;
46925;SDS011;32667;48.248;-1.700;2023-02-14T19:47:21;0.30;;;0.30;;
46925;SDS011;32667;48.248;-1.700;2023-02-14T19:49:48;0.30;;;0.30;;
46925;SDS011;32667;48.248;-1.700;2023-02-14T19:52:14;0.10;;;0.10;;
46925;SDS011;32667;48.248;-1.700;2023-02-14T19:54:42;0.22;;;0.22;;
46925;SDS011;32667;48.248;-1.700;2023-02-14T19:57:12;0.20;;;0.20;;
46925;SDS011;32667;48.248;-1.700;2023-02-14T19:59:39;0.20;;;0.20;;
46925;SDS011;32667;48.248;-1.700;2023-02-14T20:02:05;0.20;;;0.20;;
46925;SDS011;32667;48.248;-1.700;2023-02-14T20:04:36;0.20;;;0.20;;
46925;SDS011;32667;48.248;-1.700;2023-02-14T20:07:05;0.15;;;0.15;;
46925;SDS011;32667;48.248;-1.700;2023-02-14T20:09:31;0.30;;;0.30;;
46925;SDS011;32667;48.248;-1.700;2023-02-14T20:11:57;0.20;;;0.20;;
46925;SDS011;32667;48.248;-1.700;2023-02-14T20:14:31;0.20;;;0.20;;
46925;SDS011;32667;48.248;-1.700;2023-02-14T20:16:59;0.20;;;0.20;;
46925;SDS011;32667;48.248;-1.700;2023-02-14T20:19:29;0.20;;;0.20;;
46925;SDS011;32667;48.248;-1.700;2023-02-14T20:21:57;0.20;;;0.20;;
46925;SDS011;32667;48.248;-1.700;2023-02-14T20:24:25;0.20;;;0.20;;
46925;SDS011;32667;48.248;-1.700;2023-02-14T20:26:52;0.20;;;0.20;;
46925;SDS011;32667;48.248;-1.700;2023-02-14T20:29:29;0.20;;;0.20;;
46925;SDS011;32667;48.248;-1.700;2023-02-14T20:31:55;0.20;;;0.20;;
46925;SDS011;32667;48.248;-1.700;2023-02-14T20:34:25;0.20;;;0.20;;
46925;SDS011;32667;48.248;-1.700;2023-02-14T20:36:54;0.20;;;0.20;;
46925;SDS011;32667;48.248;-1.700;2023-02-14T20:39:26;0.30;;;0.30;;
46925;SDS011;32667;48.248;-1.700;2023-02-14T20:41:55;0.20;;;0.20;;
46925;SDS011;32667;48.248;-1.700;2023-02-14T20:44:32;0.20;;;0.20;;
46925;SDS011;32667;48.248;-1.700;2023-02-14T20:46:58;0.30;;;0.30;;
46925;SDS011;32667;48.248;-1.700;2023-02-14T20:49:26;0.20;;;0.20;;
46925;SDS011;32667;48.248;-1.700;2023-02-14T20:51:55;0.30;;;0.30;;
46925;SDS011;32667;48.248;-1.700;2023-02-14T20:54:27;0.20;;;0.20;;
46925;SDS011;32667;48.248;-1.700;2023-02-14T20:56:59;0.20;;;0.20;;
46925;SDS011;32667;48.248;-1.700;2023-02-14T20:59:28;0.30;;;0.30;;
46925;SDS011;32667;48.248;-1.700;2023-02-14T21:01:54;0.20;;;0.20;;
46925;SDS011;32667;48.248;-1.700;2023-02-14T21:04:21;0.30;;;0.30;;
46925;SDS011;32667;48.248;-1.700;2023-02-14T21:06:47;0.30;;;0.30;;
46925;SDS011;32667;48.248;-1.700;2023-02-14T21:09:13;0.30;;;0.30;;
46925;SDS011;32667;48.248;-1.700;2023-02-14T21:11:40;0.22;;;0.22;;
46925;SDS011;32667;48.248;-1.700;2023-02-14T21:14:13;0.20;;;0.20;;
46925;SDS011;32667;48.248;-1.700;2023-02-14T21:16:41;0.20;;;0.20;;
46925;SDS011;32667;48.248;-1.700;2023-02-14T21:19:07;0.30;;;0.30;;
46925;SDS011;32667;48.248;-1.700;2023-02-14T21:21:33;0.30;;;0.30;;
46925;SDS011;32667;48.248;-1.700;2023-02-14T21:24:03;0.30;;;0.30;;
46925;SDS011;32667;48.248;-1.700;2023-02-14T21:26:37;0.30;;;0.30;;
46925;SDS011;32667;48.248;-1.700;2023-02-14T21:29:03;0.20;;;0.20;;
46925;SDS011;32667;48.248;-1.700;2023-02-14T21:31:30;0.30;;;0.30;;
46925;SDS011;32667;48.248;-1.700;2023-02-14T21:33:58;0.30;;;0.30;;
46925;SDS011;32667;48.248;-1.700;2023-02-14T21:36:25;0.30;;;0.30;;
46925;SDS011;32667;48.248;-1.700;2023-02-14T21:38:56;0.30;;;0.30;;
46925;SDS011;32667;48.248;-1.700;2023-02-14T21:41:24;0.22;;;0.22;;
46925;SDS011;32667;48.248;-1.700;2023-02-14T21:43:52;0.52;;;0.52;;
46925;SDS011;32667;48.248;-1.700;2023-02-14T21:46:20;0.30;;;0.30;;
46925;SDS011;32667;48.248;-1.700;2023-02-14T21:48:51;0.20;;;0.20;;
46925;SDS011;32667;48.248;-1.700;2023-02-14T21:51:36;0.30;;;0.30;;
46925;SDS011;32667;48.248;-1.700;2023-02-14T21:54:03;0.20;;;0.20;;
46925;SDS011;32667;48.248;-1.700;2023-02-14T21:56:29;0.20;;;0.20;;
46925;SDS011;32667;48.248;-1.700;2023-02-14T21:58:55;0.25;;;0.25;;
46925;SDS011;32667;48.248;-1.700;2023-02-14T22:01:29;0.30;;;0.30;;
46925;SDS011;32667;48.248;-1.700;2023-02-14T22:03:57;0.20;;;0.20;;
46925;SDS011;32667;48.248;-1.700;2023-02-14T22:06:24;0.30;;;0.30;;
46925;SDS011;32667;48.248;-1.700;2023-02-14T22:08:54;0.20;;;0.20;;
46925;SDS011;32667;48.248;-1.700;2023-02-14T22:11:21;0.30;;;0.30;;
46925;SDS011;32667;48.248;-1.700;2023-02-14T22:13:49;0.22;;;0.22;;
46925;SDS011;32667;48.248;-1.700;2023-02-14T22:16:16;0.28;;;0.28;;
46925;SDS011;32667;48.248;-1.700;2023-02-14T22:18:46;0.20;;;0.20;;
46925;SDS011;32667;48.248;-1.700;2023-02-14T22:21:13;0.30;;;0.30;;
46925;SDS011;32667;48.248;-1.700;2023-02-14T22:23:42;0.20;;;0.20;;
46925;SDS011;32667;48.248;-1.700;2023-02-14T22:28:39;0.30;;;0.30;;
46925;SDS011;32667;48.248;-1.700;2023-02-14T22:31:06;0.30;;;0.30;;
46925;SDS011;32667;48.248;-1.700;2023-02-14T22:33:35;0.30;;;0.30;;
46925;SDS011;32667;48.248;-1.700;2023-02-14T22:36:01;0.20;;;0.20;;
46925;SDS011;32667;48.248;-1.700;2023-02-14T22:38:27;0.30;;;0.30;;
46925;SDS011;32667;48.248;-1.700;2023-02-14T22:40:53;0.20;;;0.20;;
46925;SDS011;32667;48.248;-1.700;2023-02-14T22:43:19;0.20;;;0.20;;
46925;SDS011;32667;48.248;-1.700;2023-02-14T22:45:48;0.30;;;0.30;;
46925;SDS011;32667;48.248;-1.700;2023-02-14T22:48:14;0.28;;;0.28;;
46925;SDS011;32667;48.248;-1.700;2023-02-14T22:50:44;0.20;;;0.20;;
46925;SDS011;32667;48.248;-1.700;2023-02-14T22:53:10;0.30;;;0.30;;
46925;SDS011;32667;48.248;-1.700;2023-02-14T22:55:38;0.20;;;0.20;;
46925;SDS011;32667;48.248;-1.700;2023-02-14T22:58:06;0.20;;;0.20;;
46925;SDS011;32667;48.248;-1.700;2023-02-14T23:00:33;0.20;;;0.20;;
46925;SDS011;32667;48.248;-1.700;2023-02-14T23:03:01;0.30;;;0.30;;
46925;SDS011;32667;48.248;-1.700;2023-02-14T23:05:30;0.20;;;0.20;;
46925;SDS011;32667;48.248;-1.700;2023-02-14T23:07:59;0.30;;;0.30;;
46925;SDS011;32667;48.248;-1.700;2023-02-14T23:10:28;0.20;;;0.20;;
46925;SDS011;32667;48.248;-1.700;2023-02-14T23:12:54;0.20;;;0.20;;
46925;SDS011;32667;48.248;-1.700;2023-02-14T23:15:38;0.30;;;0.30;;
46925;SDS011;32667;48.248;-1.700;2023-02-14T23:18:22;0.30;;;0.30;;
46925;SDS011;32667;48.248;-1.700;2023-02-14T23:21:14;0.20;;;0.20;;
46925;SDS011;32667;48.248;-1.700;2023-02-14T23:23:58;0.20;;;0.20;;
46925;SDS011;32667;48.248;-1.700;2023-02-14T23:26:24;0.20;;;0.20;;
46925;SDS011;32667;48.248;-1.700;2023-02-14T23:28:50;0.20;;;0.20;;
46925;SDS011;32667;48.248;-1.700;2023-02-14T23:31:15;0.30;;;0.30;;
46925;SDS011;32667;48.248;-1.700;2023-02-14T23:33:41;0.28;;;0.28;;
46925;SDS011;32667;48.248;-1.700;2023-02-14T23:36:07;0.30;;;0.30;;
46925;SDS011;32667;48.248;-1.700;2023-02-14T23:38:33;0.30;;;0.30;;
46925;SDS011;32667;48.248;-1.700;2023-02-14T23:41:06;0.30;;;0.30;;
46925;SDS011;32667;48.248;-1.700;2023-02-14T23:43:51;0.28;;;0.28;;
46925;SDS011;32667;48.248;-1.700;2023-02-14T23:46:17;0.30;;;0.30;;
46925;SDS011;32667;48.248;-1.700;2023-02-14T23:48:43;0.30;;;0.30;;
46925;SDS011;32667;48.248;-1.700;2023-02-14T23:51:12;0.30;;;0.30;;
46925;SDS011;32667;48.248;-1.700;2023-02-14T23:53:38;0.30;;;0.30;;
46925;SDS011;32667;48.248;-1.700;2023-02-14T23:56:06;0.30;;;0.30;;
46925;SDS011;32667;48.248;-1.700;2023-02-14T23:58:32;0.30;;;0.30;;
